createdAt,value
2024-01-06T00:01:00.192Z,14.15
2024-01-06T00:04:02.607Z,15.23
2024-01-06T00:07:04.627Z,17.10
2024-01-06T00:10:07.116Z,15.97
2024-01-06T00:13:09.075Z,15.18
2024-01-06T00:16:10.847Z,15.45
2024-01-06T00:19:12.846Z,17.48
2024-01-06T00:22:14.823Z,15.57
2024-01-06T00:25:16.624Z,15.97
2024-01-06T00:28:19.549Z,15.75
2024-01-06T00:31:21.419Z,14.70
2024-01-06T00:34:23.343Z,15.20
2024-01-06T00:37:25.227Z,14.67
2024-01-06T00:40:27.094Z,15.00
2024-01-06T00:43:28.866Z,15.43
2024-01-06T00:46:30.793Z,14.05
2024-01-06T00:49:32.790Z,11.57
2024-01-06T00:52:34.739Z,14.90
2024-01-06T00:55:36.530Z,13.53
2024-01-06T00:58:38.339Z,13.75
2024-01-06T01:01:40.205Z,14.68
2024-01-06T01:04:42.528Z,13.85
2024-01-06T01:07:44.539Z,13.53
2024-01-06T01:10:46.698Z,13.37
2024-01-06T01:13:48.784Z,14.25
2024-01-06T01:16:54.401Z,13.30
2024-01-06T01:19:56.839Z,12.48
2024-01-06T01:22:58.869Z,16.10
2024-01-06T01:26:00.874Z,11.07
2024-01-06T01:29:03.334Z,13.30
2024-01-06T01:32:05.882Z,11.02
2024-01-06T01:35:08.054Z,9.23
2024-01-06T01:38:10.108Z,10.83
2024-01-06T01:41:12.034Z,11.43
2024-01-06T01:44:14.096Z,11.80
2024-01-06T01:47:19.820Z,10.32
2024-01-06T01:50:23.416Z,11.45
2024-01-06T01:53:26.746Z,11.23
2024-01-06T01:56:28.751Z,13.37
2024-01-06T01:59:30.651Z,11.15
2024-01-06T02:02:33.499Z,13.10
2024-01-06T02:05:35.417Z,11.00
2024-01-06T02:08:37.398Z,12.60
2024-01-06T02:11:39.526Z,11.50
2024-01-06T02:14:42.858Z,10.90
2024-01-06T02:17:44.763Z,10.25
2024-01-06T02:20:47.652Z,11.50
2024-01-06T02:23:49.709Z,10.67
2024-01-06T02:26:51.832Z,10.60
2024-01-06T02:29:53.875Z,11.30
2024-01-06T02:32:55.959Z,9.20
2024-01-06T02:35:58.077Z,11.07
2024-01-06T02:39:00.221Z,11.47
2024-01-06T02:42:02.287Z,11.60
2024-01-06T02:45:04.292Z,11.82
2024-01-06T02:48:06.683Z,11.57
2024-01-06T02:51:08.684Z,11.55
2024-01-06T02:54:10.863Z,10.17
2024-01-06T02:57:14.821Z,11.00
2024-01-06T03:00:16.977Z,11.07
2024-01-06T03:03:20.057Z,10.45
2024-01-06T03:06:22.085Z,11.13
2024-01-06T03:09:23.989Z,9.97
2024-01-06T03:12:25.818Z,10.40
2024-01-06T03:15:27.895Z,9.48
2024-01-06T03:18:29.904Z,10.35
2024-01-06T03:21:31.858Z,11.73
2024-01-06T03:24:33.939Z,10.47
2024-01-06T03:27:35.867Z,9.63
2024-01-06T03:30:37.852Z,11.48
2024-01-06T03:33:39.967Z,10.38
2024-01-06T03:36:42.068Z,11.05
2024-01-06T03:39:43.988Z,11.33
2024-01-06T03:42:46.092Z,8.73
2024-01-06T03:45:48.033Z,9.40
2024-01-06T03:48:50.331Z,10.30
2024-01-06T03:51:52.560Z,10.77
2024-01-06T03:54:54.539Z,9.37
2024-01-06T03:57:56.372Z,8.80
2024-01-06T04:01:00.388Z,8.07
2024-01-06T04:04:05.772Z,8.05
2024-01-06T04:07:08.129Z,8.32
2024-01-06T04:10:10.203Z,8.67
2024-01-06T04:13:12.600Z,8.20
2024-01-06T04:16:14.603Z,7.80
2024-01-06T04:19:16.681Z,7.43
2024-01-06T04:22:18.591Z,7.55
2024-01-06T04:25:20.506Z,6.03
2024-01-06T04:28:22.497Z,5.40
2024-01-06T04:31:24.549Z,7.18
2024-01-06T04:34:26.553Z,6.15
2024-01-06T04:37:28.478Z,7.15
2024-01-06T04:40:30.431Z,7.33
2024-01-06T04:43:32.410Z,5.53
2024-01-06T04:46:34.410Z,5.53
2024-01-06T04:49:36.426Z,5.40
2024-01-06T04:52:38.510Z,5.63
2024-01-06T04:55:40.457Z,6.50
2024-01-06T04:58:42.358Z,5.33
2024-01-06T05:01:44.451Z,5.32
2024-01-06T05:04:46.476Z,5.22
2024-01-06T05:07:48.578Z,4.50
2024-01-06T05:10:50.609Z,5.27
2024-01-06T05:13:52.739Z,4.43
2024-01-06T05:16:54.669Z,5.15
2024-01-06T05:19:57.009Z,5.53
2024-01-06T05:22:59.038Z,4.35
2024-01-06T05:26:01.004Z,5.57
2024-01-06T05:29:02.910Z,5.20
2024-01-06T05:32:04.902Z,4.45
2024-01-06T05:35:07.212Z,4.25
2024-01-06T05:38:09.156Z,5.28
2024-01-06T05:41:11.081Z,5.07
2024-01-06T05:44:16.871Z,5.20
2024-01-06T05:47:18.799Z,5.15
2024-01-06T05:50:20.763Z,4.65
2024-01-06T05:53:22.848Z,8.68
2024-01-06T05:56:27.970Z,5.67
2024-01-06T05:59:29.841Z,6.03
2024-01-06T06:02:33.181Z,4.97
2024-01-06T06:05:35.051Z,5.22
2024-01-06T06:08:37.358Z,5.18
2024-01-06T06:11:39.254Z,6.00
2024-01-06T06:14:41.198Z,5.67
2024-01-06T06:17:43.355Z,5.65
2024-01-06T06:20:45.491Z,4.60
2024-01-06T06:23:47.287Z,5.25
2024-01-06T06:26:49.083Z,5.27
2024-01-06T06:29:51.027Z,4.07
2024-01-06T06:32:52.920Z,5.45
2024-01-06T06:35:54.754Z,6.57
2024-01-06T06:38:59.087Z,5.18
2024-01-06T06:42:00.830Z,6.37
2024-01-06T06:45:02.669Z,6.50
2024-01-06T06:48:04.774Z,5.72
2024-01-06T06:51:06.628Z,6.18
2024-01-06T06:54:08.434Z,5.53
2024-01-06T06:57:10.404Z,5.73
2024-01-06T07:00:12.568Z,5.30
2024-01-06T07:03:15.479Z,5.28
2024-01-06T07:06:17.562Z,5.65
2024-01-06T07:09:23.332Z,5.38
2024-01-06T07:12:25.421Z,4.47
2024-01-06T07:15:27.211Z,5.73
2024-01-06T07:18:29.082Z,5.90
2024-01-06T07:21:30.984Z,5.85
2024-01-06T07:24:32.723Z,4.22
2024-01-06T07:27:34.662Z,5.27
2024-01-06T07:30:36.506Z,5.77
2024-01-06T07:33:38.472Z,5.07
2024-01-06T07:36:41.006Z,5.78
2024-01-06T07:39:43.133Z,6.47
2024-01-06T07:42:45.374Z,5.40
2024-01-06T07:45:47.319Z,4.57
2024-01-06T07:48:49.211Z,5.88
2024-01-06T07:51:51.112Z,4.43
2024-01-06T07:54:53.057Z,2.75
2024-01-06T07:57:54.946Z,4.50
2024-01-06T08:00:56.966Z,3.93
2024-01-06T08:03:59.633Z,4.53
2024-01-06T08:07:01.601Z,5.07
2024-01-06T08:10:06.232Z,4.70
2024-01-06T08:13:08.363Z,5.13
2024-01-06T08:16:10.135Z,4.67
2024-01-06T08:19:12.089Z,4.38
2024-01-06T08:22:16.932Z,3.88
2024-01-06T08:25:23.963Z,5.05
2024-01-06T08:28:28.286Z,4.07
2024-01-06T08:31:30.241Z,4.77
2024-01-06T08:34:33.575Z,4.68
2024-01-06T08:37:35.606Z,4.25
2024-01-06T08:40:37.428Z,5.30
2024-01-06T08:43:39.349Z,5.03
2024-01-06T08:46:41.161Z,4.57
2024-01-06T08:49:43.084Z,5.72
2024-01-06T08:52:44.968Z,5.78
2024-01-06T08:59:03.076Z,5.43
2024-01-06T09:02:04.787Z,5.33
2024-01-06T09:05:06.801Z,5.30
2024-01-06T09:08:08.684Z,4.47
2024-01-06T09:11:10.440Z,5.88
2024-01-06T09:14:12.222Z,4.87
2024-01-06T09:17:14.654Z,5.50
2024-01-06T09:20:18.472Z,5.25
2024-01-06T09:23:22.620Z,6.28
2024-01-06T09:26:26.256Z,5.72
2024-01-06T09:29:28.105Z,5.73
2024-01-06T09:32:30.010Z,6.40
2024-01-06T09:35:31.816Z,4.50
2024-01-06T09:38:34.495Z,5.28
2024-01-06T09:41:36.454Z,5.88
2024-01-06T09:44:38.372Z,5.47
2024-01-06T09:47:41.565Z,5.07
2024-01-06T09:50:45.655Z,6.10
2024-01-06T09:53:54.124Z,4.22
2024-01-06T09:56:57.719Z,6.38
2024-01-06T10:00:00.751Z,6.57
2024-01-06T10:03:02.545Z,6.27
2024-01-06T10:06:05.533Z,7.20
2024-01-06T10:09:07.666Z,7.53
2024-01-06T10:12:10.656Z,7.97
2024-01-06T10:15:15.752Z,7.67
2024-01-06T10:18:17.844Z,9.13
2024-01-06T10:21:21.323Z,7.38
2024-01-06T10:24:23.263Z,8.52
2024-01-06T10:27:25.091Z,6.30
2024-01-06T10:30:26.971Z,6.50
2024-01-06T10:33:28.982Z,6.17
2024-01-06T10:36:32.403Z,5.85
2024-01-06T10:39:37.356Z,5.90
2024-01-06T10:42:40.955Z,6.10
2024-01-06T10:45:43.385Z,5.77
2024-01-06T10:48:46.790Z,6.20
2024-01-06T10:51:49.759Z,6.38
2024-01-06T10:54:52.460Z,6.63
2024-01-06T10:57:54.307Z,6.57
2024-01-06T11:00:59.593Z,5.80
2024-01-06T11:04:01.554Z,5.60
2024-01-06T11:07:03.514Z,3.72
2024-01-06T11:10:07.785Z,4.60
2024-01-06T11:13:11.279Z,3.38
2024-01-06T11:16:13.102Z,5.20
2024-01-06T11:19:33.666Z,4.53
2024-01-06T11:22:40.889Z,3.78
2024-01-06T11:25:42.694Z,4.60
2024-01-06T11:28:45.674Z,4.32
2024-01-06T11:32:06.107Z,5.47
2024-01-06T11:35:11.629Z,4.27
2024-01-06T11:38:13.721Z,5.10
2024-01-06T11:41:35.447Z,4.15
2024-01-06T11:44:40.587Z,5.20
2024-01-06T11:47:46.917Z,6.93
2024-01-06T11:50:48.733Z,6.13
2024-01-06T11:53:50.625Z,6.53
2024-01-06T11:56:55.091Z,5.68
2024-01-06T11:59:57.055Z,6.40
2024-01-06T12:02:59.408Z,7.10
2024-01-06T12:06:04.518Z,6.93
2024-01-06T12:09:20.202Z,8.48
2024-01-06T12:12:22.096Z,6.60
2024-01-06T12:15:24.631Z,7.93
2024-01-06T12:18:26.486Z,7.20
2024-01-06T12:21:28.955Z,8.33
2024-01-06T12:24:31.310Z,8.27
2024-01-06T12:27:33.785Z,8.48
2024-01-06T12:30:36.675Z,8.85
2024-01-06T12:33:42.126Z,7.73
2024-01-06T12:36:45.239Z,9.13
2024-01-06T12:39:48.444Z,7.13
2024-01-06T12:42:50.267Z,7.35
2024-01-06T12:45:54.034Z,7.45
2024-01-06T12:48:56.082Z,6.63
2024-01-06T12:51:58.152Z,6.93
2024-01-06T12:54:59.942Z,8.05
2024-01-06T12:58:05.078Z,8.35
2024-01-06T13:01:08.263Z,7.78
2024-01-06T13:04:10.392Z,6.37
2024-01-06T13:07:12.331Z,6.43
2024-01-06T13:10:14.388Z,6.32
2024-01-06T13:13:16.492Z,6.63
2024-01-06T13:16:18.429Z,6.07
2024-01-06T13:19:21.371Z,8.07
2024-01-06T13:22:23.328Z,5.93
2024-01-06T13:25:25.201Z,7.63
2024-01-06T13:28:26.927Z,7.07
2024-01-06T13:31:28.962Z,7.57
2024-01-06T13:34:31.328Z,7.70
2024-01-06T13:37:34.599Z,9.47
2024-01-06T13:40:36.882Z,10.07
2024-01-06T13:43:38.698Z,10.05
2024-01-06T13:46:42.256Z,8.75
2024-01-06T13:49:44.253Z,9.83
2024-01-06T13:52:49.844Z,10.50
2024-01-06T13:55:51.913Z,9.32
2024-01-06T13:58:53.783Z,11.48
2024-01-06T14:01:55.701Z,10.80
2024-01-06T14:04:57.436Z,11.57
2024-01-06T14:07:59.176Z,10.20
2024-01-06T14:11:00.903Z,10.57
2024-01-06T14:14:02.667Z,10.13
2024-01-06T14:17:04.646Z,10.50
2024-01-06T14:20:06.893Z,10.33
2024-01-06T14:23:09.761Z,9.70
2024-01-06T14:26:11.681Z,10.45
2024-01-06T14:29:17.468Z,11.25
2024-01-06T14:32:19.253Z,10.77
2024-01-06T14:35:20.993Z,11.60
2024-01-06T14:38:22.881Z,10.90
2024-01-06T14:41:24.677Z,12.07
2024-01-06T14:44:28.328Z,12.40
2024-01-06T14:47:30.222Z,11.50
2024-01-06T14:50:32.135Z,10.30
2024-01-06T14:53:35.923Z,10.37
2024-01-06T14:56:42.126Z,9.18
2024-01-06T14:59:44.398Z,9.82
2024-01-06T15:02:48.824Z,8.65
2024-01-06T15:05:50.759Z,9.73
2024-01-06T15:08:52.659Z,8.20
2024-01-06T15:11:54.462Z,8.77
2024-01-06T15:14:56.289Z,8.27
2024-01-06T15:17:58.272Z,9.80
2024-01-06T15:21:00.104Z,8.50
2024-01-06T15:24:02.135Z,7.77
2024-01-06T15:27:04.559Z,9.48
2024-01-06T15:30:09.065Z,9.00
2024-01-06T15:33:11.068Z,10.52
2024-01-06T15:36:12.880Z,11.73
2024-01-06T15:39:15.300Z,10.13
2024-01-06T15:42:17.112Z,11.05
2024-01-06T15:45:18.989Z,12.70
2024-01-06T15:48:23.571Z,13.82
2024-01-06T15:51:27.244Z,15.37
2024-01-06T15:54:29.207Z,14.17
2024-01-06T15:57:33.215Z,13.32
2024-01-06T16:00:37.347Z,12.57
2024-01-06T16:03:40.308Z,15.05
2024-01-06T16:06:42.307Z,8.00
2024-01-06T16:09:46.848Z,9.83
2024-01-06T16:12:54.040Z,10.75
2024-01-06T16:15:55.833Z,8.63
2024-01-06T16:18:57.867Z,9.65
2024-01-06T16:22:10.754Z,7.90
2024-01-06T16:25:19.026Z,7.73
2024-01-06T16:28:22.516Z,6.85
2024-01-06T16:31:26.449Z,8.85
2024-01-06T16:34:28.660Z,9.48
2024-01-06T16:37:30.489Z,10.60
2024-01-06T16:40:32.226Z,11.97
2024-01-06T16:43:38.479Z,8.27
2024-01-06T16:46:40.275Z,10.82
2024-01-06T16:49:42.105Z,11.27
2024-01-06T16:52:43.845Z,12.30
2024-01-06T16:55:45.608Z,12.63
2024-01-06T16:58:47.347Z,14.57
2024-01-06T17:01:49.222Z,12.35
2024-01-06T17:04:51.421Z,12.93
2024-01-06T17:07:53.663Z,13.40
2024-01-06T17:10:55.480Z,13.07
2024-01-06T17:13:57.312Z,13.00
2024-01-06T17:16:59.206Z,11.93
2024-01-06T17:20:01.023Z,11.60
2024-01-06T17:23:03.173Z,10.80
2024-01-06T17:26:05.007Z,10.70
2024-01-06T17:29:07.624Z,10.85
2024-01-06T17:32:09.610Z,9.68
2024-01-06T17:35:11.554Z,8.73
2024-01-06T17:38:13.429Z,7.30
2024-01-06T17:41:16.432Z,7.47
2024-01-06T17:44:19.630Z,7.90
2024-01-06T17:47:21.461Z,7.65
2024-01-06T17:50:23.226Z,8.45
2024-01-06T17:53:25.414Z,10.33
2024-01-06T17:56:27.550Z,13.37
2024-01-06T17:59:29.905Z,15.90
2024-01-06T18:02:31.725Z,13.52
2024-01-06T18:05:34.333Z,17.35
2024-01-06T18:08:36.320Z,13.77
2024-01-06T18:11:39.717Z,12.10
2024-01-06T18:14:41.558Z,13.50
2024-01-06T18:17:43.458Z,10.23
2024-01-06T18:20:47.947Z,7.80
2024-01-06T18:23:51.368Z,9.43
2024-01-06T18:26:53.145Z,11.93
2024-01-06T18:29:54.949Z,11.73
2024-01-06T18:32:58.694Z,9.75
2024-01-06T18:36:00.628Z,8.02
2024-01-06T18:39:02.485Z,8.73
2024-01-06T18:42:04.507Z,8.50
2024-01-06T18:45:06.506Z,8.75
2024-01-06T18:48:08.454Z,11.77
2024-01-06T18:51:10.365Z,9.98
2024-01-06T18:54:16.780Z,8.80
2024-01-06T18:57:25.382Z,9.30
2024-01-06T19:00:27.280Z,8.07
2024-01-06T19:03:29.081Z,8.07
2024-01-06T19:06:34.368Z,8.85
2024-01-06T19:10:45.288Z,9.27
2024-01-06T19:13:47.485Z,10.30
2024-01-06T19:16:49.373Z,10.82
2024-01-06T19:19:51.736Z,11.20
2024-01-06T19:23:02.105Z,10.88
2024-01-06T19:26:10.833Z,10.57
2024-01-06T19:29:12.854Z,10.80
2024-01-06T19:32:16.298Z,10.02
2024-01-06T19:35:18.383Z,11.25
2024-01-06T19:38:20.758Z,10.38
2024-01-06T19:41:22.699Z,11.03
2024-01-06T19:44:25.040Z,10.30
2024-01-06T19:47:27.381Z,10.40
2024-01-06T19:50:29.519Z,9.43
2024-01-06T19:53:31.754Z,9.35
2024-01-06T19:56:33.540Z,8.20
2024-01-06T19:59:35.549Z,9.40
2024-01-06T20:02:38.138Z,9.32
2024-01-06T20:05:40.840Z,8.65
2024-01-06T20:08:42.694Z,8.45
2024-01-06T20:11:47.047Z,5.50
2024-01-06T20:14:57.786Z,5.20
2024-01-06T20:17:59.833Z,6.68
2024-01-06T20:21:04.341Z,8.80
2024-01-06T20:24:06.668Z,5.22
2024-01-06T20:27:08.946Z,7.70
2024-01-06T20:30:13.952Z,5.83
2024-01-06T20:33:16.900Z,8.55
2024-01-06T20:36:19.641Z,7.85
2024-01-06T20:39:21.637Z,9.23
2024-01-06T20:42:23.535Z,7.90
2024-01-06T20:45:25.718Z,9.57
2024-01-06T20:48:27.882Z,9.32
2024-01-06T20:51:29.999Z,6.68
2024-01-06T20:54:32.148Z,7.40
2024-01-06T20:57:34.006Z,8.07
2024-01-06T21:00:36.276Z,9.70
2024-01-06T21:03:42.489Z,9.40
2024-01-06T21:06:44.540Z,9.80
2024-01-06T21:09:46.488Z,8.35
2024-01-06T21:12:48.670Z,7.97
2024-01-06T21:15:50.913Z,7.23
2024-01-06T21:18:53.303Z,8.95
2024-01-06T21:21:55.294Z,6.90
2024-01-06T21:24:57.344Z,6.95
2024-01-06T21:27:59.283Z,8.27
2024-01-06T21:31:01.219Z,8.43
2024-01-06T21:34:03.297Z,8.13
2024-01-06T21:37:05.241Z,8.40
2024-01-06T21:40:09.640Z,8.60
2024-01-06T21:43:11.689Z,6.23
2024-01-06T21:46:13.510Z,7.77
2024-01-06T21:49:15.448Z,7.97
2024-01-06T21:52:18.407Z,7.32
2024-01-06T21:55:20.238Z,7.65
2024-01-06T21:58:22.073Z,7.80
2024-01-06T22:01:23.897Z,8.10
2024-01-06T22:04:26.266Z,6.30
2024-01-06T22:07:28.313Z,7.00
2024-01-06T22:10:33.695Z,7.00
2024-01-06T22:13:35.665Z,7.73
2024-01-06T22:16:37.460Z,7.23
2024-01-06T22:19:40.265Z,6.13
2024-01-06T22:22:42.166Z,7.15
2024-01-06T22:25:44.069Z,7.13
2024-01-06T22:28:46.608Z,7.33
2024-01-06T22:31:48.902Z,6.07
2024-01-06T22:34:52.282Z,4.68
2024-01-06T22:37:55.528Z,6.18
2024-01-06T22:40:57.260Z,5.85
2024-01-06T22:43:59.011Z,5.73
2024-01-06T22:47:01.004Z,5.60
2024-01-06T22:50:02.742Z,4.75
2024-01-06T22:53:05.675Z,5.43
2024-01-06T22:56:09.874Z,5.35
2024-01-06T22:59:11.630Z,5.33
2024-01-06T23:02:13.491Z,6.40
2024-01-06T23:05:15.744Z,6.55
2024-01-06T23:08:17.937Z,5.22
2024-01-06T23:11:19.830Z,5.45
2024-01-06T23:14:21.606Z,5.10
2024-01-06T23:17:23.499Z,5.37
2024-01-06T23:20:25.312Z,5.35
2024-01-06T23:23:27.116Z,5.55
2024-01-06T23:26:28.940Z,4.93
2024-01-06T23:29:30.735Z,4.60
2024-01-06T23:32:32.626Z,5.37
2024-01-06T23:35:34.533Z,5.07
2024-01-06T23:38:36.413Z,4.43
2024-01-06T23:41:38.194Z,4.95
2024-01-06T23:44:40.027Z,4.73
2024-01-06T23:47:41.833Z,4.37
2024-01-06T23:50:43.618Z,4.95
2024-01-06T23:53:45.541Z,3.38
2024-01-06T23:56:47.279Z,3.70
2024-01-06T23:59:49.058Z,4.70
